KBFM/BFM METAR and TAF weather

Enter ICAO airport designator
Station Type Date Time Source
KBFM METAR 2021/05/12 01:53 UTC NOAA

KBFM 120153Z 04003KT 10SM CLR 20/19 A3004 RMK AO2 SLP173 T02000194


Station Type Date Time Source
KBFM Decoded METAR 2021/05/12 01:53 UTC NOAA

MOBILE DOWNTOWN AIRPORT, AL, United States (KBFM) 30-38N 88-04W 20M
May 11, 2021 - 09:53 PM EDT / 2021.05.12 0153 UTC
Wind: from the NE (040 degrees) at 3 MPH (3 KT):0
Visibility: 10 mile(s):0
Sky conditions: clear
Temperature: 68.0 F (20.0 C)
Dew Point: 66.9 F (19.4 C)
Relative Humidity: 96%
Pressure (altimeter): 30.04 in. Hg (1017 hPa)
ob: KBFM 120153Z 04003KT 10SM CLR 20/19 A3004 RMK AO2 SLP173 T02000194
cycle: 2

Station Type Date Time Source
KBFM TAF 2021/05/11 18:42 UTC NOAA

TAF
AMD KBFM 111739Z 1118/1218 04007KT 3SM -TSRA BR SCT015 BKN018CB OVC035
FM112000 16007KT 6SM TSRA BKN035CB
TEMPO 1120/1124 4SM TSRA OVC025CB
FM120100 13004KT 6SM SHRA VCTS BKN050CB
FM120700 VRB03KT 6SM SHRA VCTS OVC023CB
FM121000 VRB03KT 6SM SHRA VCTS OVC005CB

Example: see airport list